Time;durP1;ratioP1;P1;durP2;ratioP2;P2;SDS_P1;SDS_P2;PMS_P1;PMS_P2;Temp;Humidity;BMP_temperature;BMP_pressure;BME280_temperature;BME280_humidity;BME280_pressure;Samples;Min_cycle;Max_cycle;Signal;HPM_P1;HPM_P2
2021/07/10 00:01:59;;;;;;;18.17;8.60;;;;;;;14.86;99.16;99444.72;5145703;27;20095;-79
2021/07/10 00:04:27;;;;;;;10.35;7.13;;;;;;;14.90;99.28;99454.19;5139152;27;20051;-79
2021/07/10 00:06:54;;;;;;;9.40;7.50;;;;;;;14.87;98.98;99446.38;5142321;27;20123;-79
2021/07/10 00:09:22;;;;;;;12.20;7.55;;;;;;;14.76;99.50;99439.63;5138176;27;20051;-79
2021/07/10 00:11:49;;;;;;;16.10;7.50;;;;;;;14.78;99.21;99437.50;5149682;27;20512;-79
2021/07/10 00:14:17;;;;;;;12.18;7.70;;;;;;;14.78;99.30;99442.16;5150887;27;20570;-79
2021/07/10 00:16:44;;;;;;;12.93;7.82;;;;;;;14.80;98.83;99438.16;5142239;27;20459;-79
2021/07/10 00:19:11;;;;;;;23.42;8.23;;;;;;;14.80;98.11;99421.75;5152627;27;20562;-80
2021/07/10 00:21:38;;;;;;;12.38;6.85;;;;;;;14.64;97.73;99414.75;5138695;27;20054;-79
2021/07/10 00:24:05;;;;;;;8.85;6.78;;;;;;;14.57;97.32;99419.31;5139091;27;20047;-79
2021/07/10 00:26:33;;;;;;;10.75;6.38;;;;;;;14.50;97.49;99419.28;5151799;27;20050;-79
2021/07/10 00:29:00;;;;;;;10.90;6.53;;;;;;;14.45;98.05;99420.94;5150602;27;20418;-79
2021/07/10 00:31:27;;;;;;;9.32;6.65;;;;;;;14.48;97.73;99434.22;5148732;27;20042;-79
2021/07/10 00:33:54;;;;;;;9.98;6.30;;;;;;;14.43;97.98;99429.34;5148099;27;20058;-79
2021/07/10 00:36:21;;;;;;;11.02;7.25;;;;;;;14.19;98.53;99408.00;5142196;27;20047;-79
2021/07/10 00:38:47;;;;;;;10.68;6.80;;;;;;;14.20;98.56;99407.81;5154700;27;20095;-80
2021/07/10 00:41:14;;;;;;;13.70;6.57;;;;;;;14.37;97.45;99421.13;5148370;27;20058;-79
2021/07/10 00:43:48;;;;;;;11.98;6.50;;;;;;;14.28;97.44;99406.78;5140803;27;20046;-79
2021/07/10 00:46:17;;;;;;;10.63;6.45;;;;;;;14.14;96.69;99409.44;5143975;27;20452;-79
2021/07/10 00:48:44;;;;;;;12.77;7.70;;;;;;;14.16;96.79;99414.72;5138795;27;20047;-79
2021/07/10 00:51:11;;;;;;;17.52;7.65;;;;;;;14.06;97.50;99426.03;5148355;27;20051;-79
2021/07/10 00:53:38;;;;;;;12.52;6.72;;;;;;;13.88;97.62;99409.28;5147482;27;20051;-79
2021/07/10 00:56:06;;;;;;;14.55;6.93;;;;;;;13.77;97.77;99414.25;5148447;27;20042;-79
2021/07/10 00:58:33;;;;;;;11.63;6.25;;;;;;;13.81;98.17;99423.75;5141350;27;20516;-79
2021/07/10 01:01:02;;;;;;;11.63;6.70;;;;;;;13.75;98.39;99404.59;5146805;27;20047;-79
2021/07/10 01:03:32;;;;;;;9.10;6.05;;;;;;;13.79;98.14;99416.81;5146980;27;20058;-79
2021/07/10 01:05:59;;;;;;;21.50;6.70;;;;;;;13.78;99.00;99415.13;5147704;27;20130;-79
2021/07/10 01:08:26;;;;;;;12.80;7.03;;;;;;;13.78;98.69;99404.19;5137858;27;20043;-78
2021/07/10 01:10:54;;;;;;;12.23;6.65;;;;;;;13.80;97.57;99393.91;5146026;27;20076;-78
2021/07/10 01:13:21;;;;;;;11.10;6.60;;;;;;;13.78;96.39;99371.41;5142201;27;20054;-79
2021/07/10 01:15:49;;;;;;;13.23;6.57;;;;;;;13.60;96.18;99371.91;5141440;27;20054;-78
2021/07/10 01:18:17;;;;;;;7.63;6.38;;;;;;;13.69;96.13;99369.88;5137341;27;20046;-79
2021/07/10 01:20:47;;;;;;;17.95;7.18;;;;;;;13.60;96.76;99374.66;5134151;27;20174;-79
2021/07/10 01:23:14;;;;;;;14.70;6.47;;;;;;;13.52;98.54;99378.38;5141292;27;20039;-79
2021/07/10 01:25:44;;;;;;;10.27;6.82;;;;;;;13.57;97.21;99361.38;5148899;27;20478;-79
2021/07/10 01:28:11;;;;;;;11.38;6.53;;;;;;;13.42;97.52;99365.06;5133653;27;20494;-79
2021/07/10 01:30:38;;;;;;;10.07;6.28;;;;;;;13.55;97.41;99371.66;5141393;27;20440;-79
2021/07/10 01:33:06;;;;;;;12.43;6.35;;;;;;;13.44;98.02;99371.19;5140118;27;20043;-79
2021/07/10 01:35:33;;;;;;;13.23;6.07;;;;;;;13.44;97.34;99373.91;5143223;27;20046;-79
2021/07/10 01:38:03;;;;;;;10.77;6.68;;;;;;;13.57;96.66;99370.41;5149460;27;20053;-79
2021/07/10 01:40:31;;;;;;;8.52;6.20;;;;;;;13.63;96.51;99371.50;5143175;27;20051;-79
2021/07/10 01:43:02;;;;;;;9.65;5.93;;;;;;;13.49;96.64;99380.66;5147798;27;20448;-79
2021/07/10 01:45:29;;;;;;;16.23;6.70;;;;;;;13.44;96.55;99373.91;5153083;27;20074;-79
2021/07/10 01:47:55;;;;;;;19.73;6.43;;;;;;;13.29;96.98;99362.19;5142171;27;20053;-80
2021/07/10 01:50:23;;;;;;;10.27;6.22;;;;;;;13.43;96.81;99379.56;5138309;27;20490;-80
2021/07/10 01:52:50;;;;;;;7.97;6.03;;;;;;;13.22;97.07;99347.66;5137843;27;20047;-80
2021/07/10 01:55:19;;;;;;;9.15;6.97;;;;;;;13.22;98.20;99347.66;5150316;27;20126;-80
2021/07/10 01:57:47;;;;;;;10.43;6.70;;;;;;;13.12;99.01;99342.53;5152385;27;20410;-80
2021/07/10 02:00:17;;;;;;;16.88;7.22;;;;;;;13.08;100.00;99350.28;5146693;27;20047;-79
2021/07/10 02:02:45;;;;;;;10.98;6.18;;;;;;;13.14;100.00;99354.09;5144275;27;20087;-80
2021/07/10 02:05:13;;;;;;;12.27;6.55;;;;;;;13.17;100.00;99364.63;5142741;27;20107;-79
2021/07/10 02:07:40;;;;;;;10.05;6.45;;;;;;;13.22;100.00;99361.31;5153486;27;20087;-80
2021/07/10 02:10:10;;;;;;;7.85;5.70;;;;;;;13.24;99.78;99359.22;5152895;27;20110;-79
2021/07/10 02:12:39;;;;;;;10.03;5.83;;;;;;;13.01;99.21;99346.63;5143437;27;20050;-79
2021/07/10 02:15:07;;;;;;;17.55;6.40;;;;;;;13.03;99.68;99350.00;5148407;27;20103;-79
2021/07/10 02:17:34;;;;;;;12.77;7.30;;;;;;;13.06;100.00;99352.34;5151683;27;20390;-79
2021/07/10 02:20:01;;;;;;;10.73;6.43;;;;;;;12.97;100.00;99342.59;5152417;27;20047;-79
2021/07/10 02:22:27;;;;;;;15.80;5.60;;;;;;;12.99;100.00;99337.81;5153455;27;20046;-80
2021/07/10 02:24:54;;;;;;;7.28;5.60;;;;;;;12.97;99.57;99334.41;5152965;27;20046;-79
2021/07/10 02:27:21;;;;;;;12.18;5.57;;;;;;;12.93;99.04;99322.19;5147605;27;20062;-79
2021/07/10 02:29:49;;;;;;;10.27;5.32;;;;;;;12.97;97.89;99328.97;5153002;27;20093;-79
2021/07/10 02:32:16;;;;;;;6.60;5.45;;;;;;;12.85;98.04;99328.66;5151837;27;20050;-80
2021/07/10 02:34:42;;;;;;;10.63;5.40;;;;;;;12.63;98.25;99316.03;5147038;27;20050;-79
2021/07/10 02:37:09;;;;;;;8.20;5.35;;;;;;;12.79;98.06;99323.13;5152641;27;20047;-80
2021/07/10 02:39:36;;;;;;;9.73;5.80;;;;;;;12.72;99.59;99325.78;5142435;27;20050;-79
2021/07/10 02:42:03;;;;;;;9.35;5.78;;;;;;;12.68;98.67;99310.88;5152467;27;20077;-79
2021/07/10 02:44:30;;;;;;;9.07;5.82;;;;;;;12.74;98.10;99321.81;5152174;27;20138;-80
2021/07/10 02:46:58;;;;;;;8.35;6.03;;;;;;;12.76;99.54;99329.81;5153450;27;20039;-80
2021/07/10 02:49:25;;;;;;;9.85;5.10;;;;;;;12.84;100.00;99335.16;5147162;27;20095;-80
2021/07/10 02:51:52;;;;;;;11.85;5.28;;;;;;;12.63;100.00;99314.19;5138642;27;20072;-80
2021/07/10 02:54:18;;;;;;;11.52;5.43;;;;;;;12.68;100.00;99330.78;5151540;27;20075;-79
2021/07/10 02:56:45;;;;;;;11.35;4.97;;;;;;;12.54;100.00;99316.19;5153306;27;20038;-79
2021/07/10 02:59:12;;;;;;;7.78;5.25;;;;;;;12.57;100.00;99337.63;5151891;27;20050;-79
2021/07/10 03:01:38;;;;;;;11.35;5.32;;;;;;;12.50;99.81;99311.31;5152829;27;20058;-79
2021/07/10 03:04:07;;;;;;;9.77;5.85;;;;;;;12.44;99.56;99309.38;5152492;27;20039;-80
2021/07/10 03:06:33;;;;;;;9.27;5.25;;;;;;;12.50;99.16;99319.50;5144163;27;20087;-80
2021/07/10 03:09:00;;;;;;;11.52;5.97;;;;;;;12.53;98.69;99313.66;5150372;27;20043;-79
2021/07/10 03:11:27;;;;;;;8.23;5.55;;;;;;;12.55;99.08;99322.47;5151707;27;20073;-79
2021/07/10 03:13:54;;;;;;;7.97;5.03;;;;;;;12.42;98.65;99314.16;5145056;27;20051;-79
2021/07/10 03:16:20;;;;;;;7.00;5.72;;;;;;;12.38;98.89;99305.53;5144420;27;20119;-79
2021/07/10 03:18:47;;;;;;;8.18;5.57;;;;;;;12.54;97.71;99318.06;5152893;27;20114;-79
2021/07/10 03:21:15;;;;;;;13.48;5.05;;;;;;;12.56;96.94;99321.44;5152173;27;20069;-79
2021/07/10 03:23:42;;;;;;;10.73;5.22;;;;;;;12.39;97.09;99312.69;5143836;27;20092;-79
2021/07/10 03:26:09;;;;;;;10.95;5.57;;;;;;;12.35;97.39;99311.38;5140784;27;20490;-79
2021/07/10 03:28:35;;;;;;;8.68;5.60;;;;;;;12.26;97.33;99298.91;5138666;27;20261;-79
2021/07/10 03:31:02;;;;;;;13.77;5.93;;;;;;;12.09;98.03;99301.00;5151993;27;20047;-79
2021/07/10 03:33:34;;;;;;;8.40;5.75;;;;;;;12.12;98.62;99311.50;5150819;27;20046;-79
2021/07/10 03:36:01;;;;;;;11.10;5.45;;;;;;;11.99;98.49;99298.56;5152764;27;20043;-79
2021/07/10 03:38:29;;;;;;;11.70;5.65;;;;;;;12.07;98.39;99312.06;5151960;27;20046;-80
2021/07/10 03:40:56;;;;;;;10.10;5.78;;;;;;;11.99;98.92;99302.13;5147661;27;20303;-79
2021/07/10 03:43:22;;;;;;;10.23;5.88;;;;;;;12.09;98.79;99307.31;5150970;27;20050;-79
2021/07/10 03:45:52;;;;;;;10.35;5.57;;;;;;;11.98;98.76;99295.03;5152881;27;20103;-79
2021/07/10 03:48:19;;;;;;;7.18;5.28;;;;;;;12.11;99.49;99305.22;5152634;27;20050;-79
2021/07/10 03:50:46;;;;;;;11.18;5.85;;;;;;;12.15;98.98;99314.72;5151936;27;20406;-78
2021/07/10 03:53:13;;;;;;;11.15;5.45;;;;;;;12.18;97.90;99283.50;5152047;27;20046;-79
2021/07/10 03:55:41;;;;;;;11.13;6.30;;;;;;;12.23;98.39;99305.56;5145901;27;20150;-79
2021/07/10 03:58:08;;;;;;;10.40;5.75;;;;;;;12.20;98.09;99282.25;5151749;27;20047;-79
2021/07/10 04:00:34;;;;;;;11.45;6.45;;;;;;;12.13;99.28;99283.22;5152814;27;20562;-79
2021/07/10 04:03:01;;;;;;;11.35;6.03;;;;;;;12.25;98.95;99287.13;5155659;27;20087;-79
2021/07/10 04:05:28;;;;;;;11.13;6.78;;;;;;;12.48;98.32;99316.09;5155926;27;20043;-79
2021/07/10 04:07:55;;;;;;;20.92;7.97;;;;;;;12.25;99.41;99306.22;5155878;27;20050;-79
2021/07/10 04:10:22;;;;;;;17.63;6.95;;;;;;;12.29;99.67;99312.13;5148835;27;20073;-80
2021/07/10 04:12:50;;;;;;;7.03;5.85;;;;;;;12.36;99.83;99321.22;5155757;27;20042;-79
2021/07/10 04:15:18;;;;;;;12.48;6.03;;;;;;;12.28;99.39;99310.44;5155164;27;20047;-79
2021/07/10 04:17:45;;;;;;;9.93;5.03;;;;;;;12.39;98.59;99302.59;5152605;27;20409;-79
2021/07/10 04:20:14;;;;;;;10.18;4.88;;;;;;;12.51;97.80;99307.53;5155302;27;20043;-79
2021/07/10 04:22:41;;;;;;;13.40;6.10;;;;;;;12.46;97.48;99323.66;5138879;27;20043;-79
2021/07/10 04:25:11;;;;;;;17.13;4.63;;;;;;;12.36;96.46;99299.41;5155232;27;20051;-79
2021/07/10 04:27:38;;;;;;;6.22;4.60;;;;;;;12.25;97.70;99306.22;5154994;27;20466;-79
2021/07/10 04:30:11;;;;;;;11.35;4.75;;;;;;;12.12;98.58;99306.91;5155763;27;20047;-79
2021/07/10 04:32:38;;;;;;;12.32;4.93;;;;;;;12.17;98.76;99303.63;5152441;27;20055;-79
2021/07/10 04:35:06;;;;;;;9.85;4.75;;;;;;;12.22;98.92;99298.41;5155733;27;20047;-79
2021/07/10 04:37:32;;;;;;;7.53;5.53;;;;;;;12.32;99.20;99295.41;5147564;27;20096;-79
2021/07/10 04:39:59;;;;;;;8.90;5.70;;;;;;;12.43;99.89;99311.22;5152102;27;20050;-78
2021/07/10 04:42:26;;;;;;;13.55;5.80;;;;;;;12.44;99.88;99293.84;5151144;27;20050;-78
2021/07/10 04:44:53;;;;;;;6.50;5.00;;;;;;;12.60;99.52;99309.13;5147635;27;20096;-78
2021/07/10 04:47:22;;;;;;;9.48;5.28;;;;;;;12.59;99.73;99304.69;5149106;27;20134;-78
2021/07/10 04:49:49;;;;;;;12.68;5.78;;;;;;;12.65;99.97;99292.16;5154661;27;20085;-79
2021/07/10 04:52:16;;;;;;;8.20;6.10;;;;;;;12.78;100.00;99300.47;5154939;27;20051;-79
2021/07/10 04:54:43;;;;;;;9.95;6.65;;;;;;;12.86;100.00;99302.22;5154132;27;20494;-79
2021/07/10 04:57:09;;;;;;;13.40;6.07;;;;;;;13.08;99.88;99322.97;5154828;27;20062;-79
2021/07/10 04:59:36;;;;;;;13.75;6.93;;;;;;;13.12;100.00;99307.03;5146068;27;20039;-79
2021/07/10 05:02:03;;;;;;;14.00;7.20;;;;;;;13.26;100.00;99310.72;5155043;27;20091;-79
2021/07/10 05:04:31;;;;;;;10.50;6.95;;;;;;;13.31;100.00;99302.78;5148356;27;20091;-79
2021/07/10 05:06:58;;;;;;;8.90;6.35;;;;;;;13.88;99.67;99305.44;5154703;27;20049;-79
2021/07/10 05:09:25;;;;;;;7.95;6.00;;;;;;;14.56;96.08;99302.75;5153388;27;20047;-79
2021/07/10 05:11:52;;;;;;;9.98;6.47;;;;;;;15.40;91.58;99312.28;5154109;27;20092;-79
2021/07/10 05:14:19;;;;;;;9.93;5.50;;;;;;;15.89;88.17;99298.25;5153637;27;20084;-79
2021/07/10 05:16:47;;;;;;;12.15;5.18;;;;;;;16.20;86.08;99292.03;5154336;27;20034;-79
2021/07/10 05:19:13;;;;;;;5.70;5.10;;;;;;;16.67;84.08;99308.22;5153908;27;20078;-79
2021/07/10 05:21:42;;;;;;;9.57;4.80;;;;;;;16.60;82.94;99291.78;5140769;27;20047;-79
2021/07/10 05:24:09;;;;;;;5.43;4.35;;;;;;;17.05;82.44;99301.00;5145559;27;20493;-80
2021/07/10 05:26:35;;;;;;;7.35;4.22;;;;;;;17.41;81.15;99302.16;5153791;27;20386;-79
2021/07/10 05:29:04;;;;;;;9.65;4.82;;;;;;;17.46;80.34;99285.81;5154343;27;20090;-80
2021/07/10 05:31:31;;;;;;;9.27;6.10;;;;;;;17.66;79.45;99294.72;5154072;27;20082;-79
2021/07/10 05:33:57;;;;;;;7.20;4.05;;;;;;;17.68;78.73;99286.22;5150381;27;20043;-79
2021/07/10 05:36:24;;;;;;;6.63;3.80;;;;;;;18.16;78.19;99304.72;5152752;27;20046;-79
2021/07/10 05:38:52;;;;;;;6.57;4.50;;;;;;;18.40;77.22;99293.84;5155025;27;20050;-80
2021/07/10 05:41:19;;;;;;;5.13;3.85;;;;;;;18.70;76.45;99290.25;5153445;27;20047;-80
2021/07/10 05:43:46;;;;;;;6.93;4.53;;;;;;;18.83;75.10;99281.75;5153193;27;20066;-79
2021/07/10 05:46:13;;;;;;;5.93;4.53;;;;;;;19.14;74.33;99295.50;5153741;27;20485;-79
2021/07/10 05:48:40;;;;;;;6.75;4.32;;;;;;;18.95;74.33;99290.06;5136770;27;20077;-79
2021/07/10 05:51:06;;;;;;;9.15;4.70;;;;;;;18.95;74.10;99284.56;5144494;27;20058;-79
2021/07/10 05:53:33;;;;;;;6.85;4.40;;;;;;;19.01;73.89;99283.59;5153541;27;20077;-80
2021/07/10 05:56:01;;;;;;;6.32;4.35;;;;;;;19.18;73.48;99274.63;5153482;27;20046;-80
2021/07/10 05:58:28;;;;;;;7.78;4.72;;;;;;;19.20;73.80;99267.00;5137186;27;20043;-80
2021/07/10 06:00:55;;;;;;;6.90;4.65;;;;;;;19.26;74.16;99288.09;5153654;27;20094;-80
2021/07/10 06:03:22;;;;;;;5.85;4.88;;;;;;;19.45;72.86;99283.28;5153238;27;20051;-80
2021/07/10 06:05:48;;;;;;;13.23;5.10;;;;;;;19.57;72.42;99270.34;5146133;27;20043;-79
2021/07/10 06:08:15;;;;;;;6.95;4.97;;;;;;;19.58;71.46;99273.94;5148378;27;20054;-80
2021/07/10 06:10:42;;;;;;;10.25;5.57;;;;;;;19.83;71.29;99289.38;5153472;27;20045;-80
2021/07/10 06:13:10;;;;;;;7.50;4.88;;;;;;;20.03;70.84;99286.22;5153570;27;20107;-80
2021/07/10 06:15:37;;;;;;;6.35;5.00;;;;;;;20.23;71.44;99289.38;5152461;27;20481;-80
2021/07/10 06:18:05;;;;;;;6.38;5.43;;;;;;;20.44;70.41;99276.81;5153627;27;20050;-80
2021/07/10 06:20:34;;;;;;;11.25;5.65;;;;;;;20.58;69.79;99271.88;5154027;27;20045;-81
2021/07/10 06:23:04;;;;;;;9.98;5.30;;;;;;;20.63;68.95;99271.94;5150223;27;20050;-80
2021/07/10 06:25:32;;;;;;;8.57;4.85;;;;;;;20.75;68.54;99268.31;5152353;27;20133;-81
2021/07/10 06:27:59;;;;;;;7.25;5.03;;;;;;;20.72;68.65;99279.88;5152618;27;20047;-80
2021/07/10 06:30:28;;;;;;;9.90;4.90;;;;;;;20.43;69.84;99266.88;5153279;27;20039;-79
2021/07/10 06:32:55;;;;;;;5.88;4.20;;;;;;;20.68;69.47;99291.41;5151584;27;20096;-79
2021/07/10 06:35:22;;;;;;;9.95;4.72;;;;;;;20.83;67.44;99268.72;5153439;27;20111;-80
2021/07/10 06:37:49;;;;;;;6.38;4.55;;;;;;;21.12;69.19;99260.38;5152210;27;20078;-80
2021/07/10 06:40:17;;;;;;;7.80;5.65;;;;;;;21.63;65.51;99270.56;5152583;27;20107;-80
2021/07/10 06:42:44;;;;;;;7.30;4.60;;;;;;;21.82;65.98;99285.75;5152824;27;20096;-80
2021/07/10 06:45:14;;;;;;;7.20;4.35;;;;;;;21.53;64.68;99268.50;5152521;27;20046;-80
2021/07/10 06:47:43;;;;;;;6.10;4.75;;;;;;;21.30;64.94;99259.28;5152721;27;20058;-81
2021/07/10 06:50:12;;;;;;;12.33;4.93;;;;;;;21.42;66.81;99283.22;5152710;27;20046;-80
2021/07/10 06:52:40;;;;;;;6.60;4.95;;;;;;;21.89;65.35;99282.81;5152728;27;20435;-80
2021/07/10 06:55:09;;;;;;;8.15;4.88;;;;;;;22.29;62.33;99281.63;5140612;27;20108;-80
2021/07/10 06:57:36;;;;;;;8.27;4.83;;;;;;;21.98;63.55;99278.50;5138899;27;20043;-80
2021/07/10 07:00:06;;;;;;;9.32;5.68;;;;;;;21.79;63.04;99274.38;5150470;27;20288;-80
2021/07/10 07:02:33;;;;;;;;;;;;;;;21.98;65.87;99275.75;5153266;27;20454;-80
2021/07/10 07:05:01;;;;;;;8.30;4.78;;;;;;;22.48;62.52;99268.31;5152444;27;20301;-80
2021/07/10 07:07:28;;;;;;;6.55;4.72;;;;;;;22.68;62.16;99253.00;5152775;27;20047;-80
2021/07/10 07:09:54;;;;;;;5.22;4.32;;;;;;;22.39;61.63;99258.81;5151217;27;20058;-80
2021/07/10 07:12:27;;;;;;;7.28;4.75;;;;;;;22.70;60.65;99254.41;5152757;27;20051;-80
2021/07/10 07:14:53;;;;;;;6.78;4.47;;;;;;;22.31;62.50;99253.69;5141750;27;20047;-80
2021/07/10 07:17:20;;;;;;;5.88;4.72;;;;;;;22.57;60.66;99247.34;5132951;27;20058;-80
2021/07/10 07:19:47;;;;;;;6.63;4.50;;;;;;;22.86;60.29;99247.06;5144987;27;20042;-80
2021/07/10 07:22:15;;;;;;;13.27;4.38;;;;;;;22.87;58.39;99231.25;5150910;27;20501;-80
2021/07/10 07:24:42;;;;;;;6.85;4.30;;;;;;;23.01;58.59;99229.72;5151568;27;20042;-80
2021/07/10 07:27:08;;;;;;;8.05;4.20;;;;;;;23.03;57.89;99229.44;5151455;27;20084;-80
2021/07/10 07:29:36;;;;;;;6.70;4.38;;;;;;;23.14;59.81;99245.09;5151338;27;20050;-80
2021/07/10 07:32:04;;;;;;;8.07;4.07;;;;;;;23.33;58.65;99234.41;5151685;27;20118;-79
2021/07/10 07:34:30;;;;;;;9.25;4.57;;;;;;;23.45;58.52;99223.94;5153915;27;20075;-79
2021/07/10 07:36:57;;;;;;;8.35;4.53;;;;;;;23.58;58.02;99244.84;5154506;27;20047;-79
2021/07/10 07:39:25;;;;;;;6.78;4.70;;;;;;;23.54;58.66;99226.22;5151895;27;20107;-80
2021/07/10 07:41:52;;;;;;;4.35;3.80;;;;;;;23.57;58.32;99226.50;5152281;27;20095;-80
2021/07/10 07:44:19;;;;;;;4.45;3.95;;;;;;;23.48;57.24;99219.81;5147247;27;20114;-80
2021/07/10 07:46:46;;;;;;;5.35;3.85;;;;;;;23.76;55.44;99214.97;5156588;27;20102;-80
2021/07/10 07:49:13;;;;;;;6.80;5.10;;;;;;;23.71;57.21;99226.88;5155475;27;20438;-80
2021/07/10 07:51:40;;;;;;;6.80;4.18;;;;;;;24.01;56.86;99214.22;5156426;27;20450;-80
2021/07/10 07:54:06;;;;;;;5.50;4.05;;;;;;;24.06;57.42;99218.97;5154325;27;20096;-80
2021/07/10 07:56:35;;;;;;;6.32;3.90;;;;;;;24.50;58.74;99210.19;5155626;27;20047;-81
2021/07/10 07:59:04;;;;;;;4.82;3.83;;;;;;;24.47;54.29;99216.31;5151260;27;20039;-80
2021/07/10 08:01:31;;;;;;;4.57;3.70;;;;;;;24.32;54.27;99215.16;5146510;27;20077;-80
2021/07/10 08:03:58;;;;;;;4.50;3.65;;;;;;;24.33;53.48;99216.00;5152536;27;20039;-80
2021/07/10 08:06:25;;;;;;;6.07;4.22;;;;;;;23.86;57.07;99198.34;5155662;27;20546;-80
2021/07/10 08:08:51;;;;;;;5.80;3.85;;;;;;;24.06;56.02;99200.38;5155718;27;20050;-80
2021/07/10 08:11:20;;;;;;;5.03;3.78;;;;;;;24.12;53.17;99201.25;5146363;27;20051;-80
2021/07/10 08:13:48;;;;;;;5.50;3.13;;;;;;;24.29;53.75;99195.44;5135585;27;20065;-79
2021/07/10 08:16:15;;;;;;;4.10;3.08;;;;;;;24.18;53.85;99194.59;5155550;27;20039;-80
2021/07/10 08:18:45;;;;;;;4.97;3.70;;;;;;;24.26;57.64;99190.44;5155527;27;20054;-80
2021/07/10 08:21:14;;;;;;;4.85;3.22;;;;;;;24.48;53.60;99190.16;5156534;27;20035;-80
2021/07/10 08:23:41;;;;;;;7.82;3.35;;;;;;;24.51;53.08;99196.03;5157465;27;20054;-80
2021/07/10 08:26:10;;;;;;;9.75;3.35;;;;;;;24.18;56.01;99189.03;5157042;27;20056;-80
2021/07/10 08:28:40;;;;;;;7.07;3.20;;;;;;;24.50;54.88;99196.31;5154616;27;20443;-80
2021/07/10 08:31:08;;;;;;;4.70;3.20;;;;;;;24.56;56.10;99195.19;5155227;27;20130;-80
2021/07/10 08:33:38;;;;;;;5.22;3.05;;;;;;;24.33;53.45;99175.16;5153900;27;20107;-80
2021/07/10 08:36:13;;;;;;;4.35;3.13;;;;;;;24.57;54.13;99182.97;5155884;27;20057;-80
2021/07/10 08:38:39;;;;;;;4.60;2.90;;;;;;;24.62;53.07;99182.19;5157344;27;20486;-80
2021/07/10 08:41:11;;;;;;;5.85;3.20;;;;;;;24.80;55.53;99180.78;5156564;27;20050;-80
2021/07/10 08:43:43;;;;;;;3.55;2.80;;;;;;;24.72;54.59;99183.00;5155731;27;20564;-80
2021/07/10 08:46:15;;;;;;;4.93;3.30;;;;;;;24.89;54.40;99177.16;5154640;27;20085;-79
2021/07/10 08:48:51;;;;;;;6.43;4.00;;;;;;;24.69;53.57;99177.16;5155066;27;20155;-80
2021/07/10 08:51:18;;;;;;;4.10;3.10;;;;;;;24.71;53.59;99167.44;5155053;27;20047;-80
2021/07/10 08:53:44;;;;;;;5.43;3.20;;;;;;;24.68;52.76;99164.38;5154473;27;20146;-80
2021/07/10 08:56:11;;;;;;;3.78;2.88;;;;;;;24.82;52.22;99167.44;5155287;27;20549;-80
2021/07/10 08:58:39;;;;;;;7.70;4.05;;;;;;;25.00;50.11;99168.81;5154545;27;20038;-80
2021/07/10 09:01:08;;;;;;;2.95;2.53;;;;;;;24.91;52.47;99176.88;5145099;27;20439;-80
2021/07/10 09:03:37;;;;;;;6.25;3.10;;;;;;;24.82;52.54;99159.09;5154854;27;20070;-80
2021/07/10 09:06:04;;;;;;;4.78;2.67;;;;;;;24.64;50.44;99163.28;5144043;27;20039;-80
2021/07/10 09:08:45;;;;;;;4.65;2.85;;;;;;;24.74;51.27;99157.72;5155541;27;20494;-80
2021/07/10 09:11:17;;;;;;;7.80;3.20;;;;;;;24.69;51.00;99158.56;5147778;27;20061;-80
2021/07/10 09:13:47;;;;;;;5.80;2.63;;;;;;;24.21;51.81;99164.31;5154975;27;20054;-80
2021/07/10 09:16:16;;;;;;;3.50;3.10;;;;;;;24.06;53.85;99169.84;5151688;27;20054;-80
2021/07/10 09:18:47;;;;;;;2.92;2.58;;;;;;;24.55;53.20;99169.38;5134867;27;20043;-80
2021/07/10 09:21:16;;;;;;;3.10;2.80;;;;;;;25.06;51.27;99167.69;5139415;27;20098;-81
2021/07/10 09:23:46;;;;;;;4.43;2.83;;;;;;;24.90;49.88;99169.63;5154600;27;20050;-82
2021/07/10 09:26:14;;;;;;;3.90;2.35;;;;;;;25.52;52.72;99158.41;5156404;27;20043;-81
2021/07/10 09:28:42;;;;;;;4.07;2.63;;;;;;;25.27;51.27;99160.13;5155944;27;20058;-82
2021/07/10 09:31:15;;;;;;;3.10;2.80;;;;;;;25.59;52.06;99140.31;5155106;27;20054;-81
2021/07/10 09:33:46;;;;;;;4.20;2.58;;;;;;;25.68;51.13;99157.22;5146383;27;20504;-82
2021/07/10 09:36:13;;;;;;;3.92;2.70;;;;;;;25.75;51.95;99138.25;5138291;27;20054;-82
2021/07/10 09:38:44;;;;;;;4.90;2.88;;;;;;;25.72;50.85;99140.81;5154043;27;20486;-82
2021/07/10 09:41:13;;;;;;;4.85;2.53;;;;;;;25.64;50.76;99135.81;5154494;27;20066;-82
2021/07/10 09:43:41;;;;;;;3.85;2.53;;;;;;;25.56;50.93;99128.88;5152049;27;20379;-82
2021/07/10 09:46:09;;;;;;;2.60;2.35;;;;;;;25.38;47.33;99136.78;5154767;27;20102;-82
2021/07/10 09:48:40;;;;;;;4.65;2.90;;;;;;;25.55;47.61;99127.25;5134932;27;20494;-81
2021/07/10 09:51:19;;;;;;;5.15;2.40;;;;;;;25.72;50.24;99138.84;5150010;27;20043;-82
2021/07/10 09:54:03;;;;;;;2.92;2.72;;;;;;;25.81;44.90;99129.91;5151655;27;20051;-82
2021/07/10 09:56:32;;;;;;;6.70;2.47;;;;;;;25.56;45.13;99140.03;5151559;27;20419;-82
2021/07/10 09:58:59;;;;;;;4.60;2.22;;;;;;;25.75;45.78;99140.22;5153549;27;20405;-82
2021/07/10 10:01:35;;;;;;;2.70;2.50;;;;;;;24.98;46.78;99132.94;5152998;27;20043;-82
2021/07/10 10:04:02;;;;;;;7.32;2.90;;;;;;;25.02;48.58;99117.38;5150766;27;20058;-80
2021/07/10 10:06:32;;;;;;;4.13;2.38;;;;;;;25.50;48.12;99132.81;5148060;27;20046;-79
2021/07/10 10:09:00;;;;;;;4.32;2.08;;;;;;;25.85;47.34;99120.69;5154196;27;20047;-80
2021/07/10 10:11:57;;;;;;;2.20;2.00;;;;;;;25.82;44.55;99121.25;5151452;27;20518;-79
2021/07/10 10:14:24;;;;;;;2.63;2.20;;;;;;;26.02;45.82;99111.97;5139072;27;20046;-80
2021/07/10 10:16:51;;;;;;;2.80;2.17;;;;;;;26.46;46.23;99115.84;5153011;27;20039;-80
2021/07/10 10:19:21;;;;;;;4.38;1.98;;;;;;;26.80;45.04;99115.03;5154097;27;20058;-80
2021/07/10 10:21:53;;;;;;;4.88;1.95;;;;;;;26.55;44.79;99116.03;5153712;27;20466;-80
2021/07/10 10:24:23;;;;;;;8.55;2.00;;;;;;;26.37;44.35;99095.28;5152307;27;20421;-81
2021/07/10 10:26:51;;;;;;;3.15;1.73;;;;;;;26.04;43.17;99101.38;5153575;27;20493;-80
2021/07/10 10:29:19;;;;;;;3.50;2.30;;;;;;;26.32;43.87;99096.16;5152577;27;20058;-80
2021/07/10 10:31:59;;;;;;;2.45;2.25;;;;;;;26.73;44.08;99114.53;5153348;27;20054;-80
2021/07/10 10:34:27;;;;;;;2.33;1.77;;;;;;;26.67;43.65;99108.16;5153239;27;20051;-81
2021/07/10 10:36:57;;;;;;;2.83;1.88;;;;;;;26.32;43.11;99107.31;5151941;27;20054;-81
2021/07/10 10:39:25;;;;;;;;;;;;;;;26.59;44.88;99105.97;5133674;27;20074;-80
2021/07/10 10:41:56;;;;;;;3.55;2.03;;;;;;;26.33;44.85;99100.59;5150018;27;19933;-81
2021/07/10 10:44:25;;;;;;;4.90;2.38;;;;;;;26.40;40.04;99094.72;5150469;27;20053;-80
2021/07/10 10:46:54;;;;;;;2.47;1.83;;;;;;;26.27;44.40;99085.03;5153695;27;20042;-81
2021/07/10 10:49:43;;;;;;;2.40;1.80;;;;;;;26.04;44.95;99101.38;5149677;27;20397;-80
2021/07/10 10:52:20;;;;;;;2.03;1.70;;;;;;;26.19;41.24;99082.91;5154346;27;20073;-81
2021/07/10 10:54:49;;;;;;;2.80;1.73;;;;;;;26.29;40.19;99082.81;5151640;27;20047;-81
2021/07/10 10:57:16;;;;;;;4.40;1.48;;;;;;;26.23;41.23;99067.28;5153882;27;20073;-81
2021/07/10 10:59:45;;;;;;;2.78;1.42;;;;;;;26.25;40.77;99076.16;5152904;27;20050;-81
2021/07/10 11:02:43;;;;;;;3.72;1.85;;;;;;;26.08;40.13;99063.47;5153651;27;20086;-81
2021/07/10 11:05:10;;;;;;;8.93;1.58;;;;;;;26.81;43.23;99075.69;5152452;27;20050;-81
2021/07/10 11:07:39;;;;;;;2.10;1.67;;;;;;;26.56;40.35;99061.97;5153797;27;20053;-81
2021/07/10 11:10:11;;;;;;;2.00;1.80;;;;;;;26.93;43.96;99054.91;5155995;27;20039;-81
2021/07/10 11:12:54;;;;;;;4.25;1.70;;;;;;;27.31;43.67;99061.44;5146954;27;20051;-80
2021/07/10 11:15:44;;;;;;;1.88;1.52;;;;;;;26.85;38.64;99061.97;5153249;27;20050;-83
2021/07/10 11:18:28;;;;;;;1.92;1.80;;;;;;;26.67;41.01;99057.97;5157083;27;20057;-81
2021/07/10 11:20:56;;;;;;;7.80;2.10;;;;;;;26.57;41.72;99049.69;5157649;27;20050;-80
2021/07/10 11:23:30;;;;;;;2.35;1.73;;;;;;;26.60;38.00;99035.16;5155284;27;20429;-80
2021/07/10 11:25:57;;;;;;;2.55;1.50;;;;;;;26.80;39.38;99039.72;5158075;27;20047;-81
2021/07/10 11:28:26;;;;;;;2.53;1.67;;;;;;;26.94;40.33;99037.06;5156488;27;20129;-81
2021/07/10 11:30:56;;;;;;;1.65;1.50;;;;;;;27.10;38.73;99023.75;5158037;27;20058;-81
2021/07/10 11:34:01;;;;;;;4.90;1.48;;;;;;;27.35;41.63;99017.84;5147450;27;20058;-81
2021/07/10 11:36:43;;;;;;;3.47;1.40;;;;;;;27.68;41.26;99014.34;5157268;27;20046;-81
2021/07/10 11:39:39;;;;;;;4.38;1.77;;;;;;;27.24;37.59;99007.94;5139339;27;20073;-81